sensor_id;sensor_type;location;lat;lon;timestamp;pressure;altitude;pressure_sealevel;temperature;humidity
24962;BME280;12992;50.884;13.668;2024-03-06T00:02:22;97396.06;;;5.44;100.00
24962;BME280;12992;50.884;13.668;2024-03-06T00:04:47;97394.69;;;5.34;100.00
24962;BME280;12992;50.884;13.668;2024-03-06T00:07:13;97402.00;;;5.27;100.00
24962;BME280;12992;50.884;13.668;2024-03-06T00:09:38;97402.50;;;5.18;100.00
24962;BME280;12992;50.884;13.668;2024-03-06T00:12:03;97401.94;;;5.09;100.00
24962;BME280;12992;50.884;13.668;2024-03-06T00:14:29;97403.44;;;5.05;100.00
24962;BME280;12992;50.884;13.668;2024-03-06T00:16:54;97401.16;;;5.02;100.00
24962;BME280;12992;50.884;13.668;2024-03-06T00:19:22;97409.78;;;4.86;100.00
24962;BME280;12992;50.884;13.668;2024-03-06T00:21:48;97411.56;;;4.98;100.00
24962;BME280;12992;50.884;13.668;2024-03-06T00:24:14;97416.16;;;4.98;100.00
24962;BME280;12992;50.884;13.668;2024-03-06T00:26:43;97416.78;;;4.93;100.00
24962;BME280;12992;50.884;13.668;2024-03-06T00:29:09;97411.88;;;4.83;100.00
24962;BME280;12992;50.884;13.668;2024-03-06T00:31:35;97417.69;;;4.80;100.00
24962;BME280;12992;50.884;13.668;2024-03-06T00:34:00;97417.50;;;4.75;100.00
24962;BME280;12992;50.884;13.668;2024-03-06T00:36:26;97429.50;;;4.86;100.00
24962;BME280;12992;50.884;13.668;2024-03-06T00:38:51;97420.56;;;4.86;100.00
24962;BME280;12992;50.884;13.668;2024-03-06T00:41:16;97424.66;;;4.63;100.00
24962;BME280;12992;50.884;13.668;2024-03-06T00:43:41;97425.91;;;4.61;100.00
24962;BME280;12992;50.884;13.668;2024-03-06T00:46:07;97429.25;;;4.56;100.00
24962;BME280;12992;50.884;13.668;2024-03-06T00:48:32;97435.69;;;4.48;100.00
24962;BME280;12992;50.884;13.668;2024-03-06T00:50:58;97441.56;;;4.39;100.00
24962;BME280;12992;50.884;13.668;2024-03-06T00:53:23;97437.41;;;4.43;100.00
24962;BME280;12992;50.884;13.668;2024-03-06T00:55:49;97445.66;;;4.48;100.00
24962;BME280;12992;50.884;13.668;2024-03-06T00:58:14;97437.81;;;4.40;100.00
24962;BME280;12992;50.884;13.668;2024-03-06T01:00:40;97447.75;;;4.46;100.00
24962;BME280;12992;50.884;13.668;2024-03-06T01:03:05;97440.72;;;4.45;100.00
24962;BME280;12992;50.884;13.668;2024-03-06T01:05:31;97447.94;;;4.51;100.00
24962;BME280;12992;50.884;13.668;2024-03-06T01:07:56;97449.38;;;4.53;100.00
24962;BME280;12992;50.884;13.668;2024-03-06T01:10:22;97444.59;;;4.55;100.00
24962;BME280;12992;50.884;13.668;2024-03-06T01:12:48;97438.84;;;4.45;100.00
24962;BME280;12992;50.884;13.668;2024-03-06T01:15:13;97441.56;;;4.39;100.00
24962;BME280;12992;50.884;13.668;2024-03-06T01:17:38;97440.72;;;4.45;100.00
24962;BME280;12992;50.884;13.668;2024-03-06T01:20:05;97448.19;;;4.43;100.00
24962;BME280;12992;50.884;13.668;2024-03-06T01:22:33;97446.50;;;4.48;100.00
24962;BME280;12992;50.884;13.668;2024-03-06T01:24:58;97452.66;;;4.62;100.00
24962;BME280;12992;50.884;13.668;2024-03-06T01:27:24;97443.56;;;4.50;100.00
24962;BME280;12992;50.884;13.668;2024-03-06T01:29:50;97451.72;;;4.37;100.00
24962;BME280;12992;50.884;13.668;2024-03-06T01:32:15;97451.94;;;4.35;100.00
24962;BME280;12992;50.884;13.668;2024-03-06T01:34:41;97454.44;;;4.37;100.00
24962;BME280;12992;50.884;13.668;2024-03-06T01:37:06;97450.31;;;4.34;100.00
24962;BME280;12992;50.884;13.668;2024-03-06T01:39:32;97444.34;;;4.12;100.00
24962;BME280;12992;50.884;13.668;2024-03-06T01:41:58;97445.13;;;4.26;100.00
24962;BME280;12992;50.884;13.668;2024-03-06T01:44:23;97447.84;;;4.19;100.00
24962;BME280;12992;50.884;13.668;2024-03-06T01:46:49;97458.19;;;4.22;100.00
24962;BME280;12992;50.884;13.668;2024-03-06T01:49:15;97463.63;;;4.16;100.00
24962;BME280;12992;50.884;13.668;2024-03-06T01:51:43;97457.34;;;4.29;100.00
24962;BME280;12992;50.884;13.668;2024-03-06T01:54:10;97454.03;;;4.33;100.00
24962;BME280;12992;50.884;13.668;2024-03-06T01:56:39;97454.03;;;4.33;100.00
24962;BME280;12992;50.884;13.668;2024-03-06T01:59:09;97457.34;;;4.29;100.00
24962;BME280;12992;50.884;13.668;2024-03-06T02:01:35;97454.06;;;4.26;100.00
24962;BME280;12992;50.884;13.668;2024-03-06T02:04:01;97452.88;;;3.96;100.00
24962;BME280;12992;50.884;13.668;2024-03-06T02:06:26;97459.50;;;4.07;100.00
24962;BME280;12992;50.884;13.668;2024-03-06T02:08:52;97454.97;;;3.94;100.00
24962;BME280;12992;50.884;13.668;2024-03-06T02:11:17;97468.63;;;3.99;100.00
24962;BME280;12992;50.884;13.668;2024-03-06T02:13:43;97462.00;;;4.08;100.00
24962;BME280;12992;50.884;13.668;2024-03-06T02:16:09;97461.38;;;4.00;100.00
24962;BME280;12992;50.884;13.668;2024-03-06T02:18:35;97456.22;;;3.85;100.00
24962;BME280;12992;50.884;13.668;2024-03-06T02:21:02;97446.72;;;3.29;100.00
24962;BME280;12992;50.884;13.668;2024-03-06T02:23:27;97457.06;;;3.12;100.00
24962;BME280;12992;50.884;13.668;2024-03-06T02:25:52;97458.91;;;2.92;100.00
24962;BME280;12992;50.884;13.668;2024-03-06T02:28:18;97461.78;;;2.84;100.00
24962;BME280;12992;50.884;13.668;2024-03-06T02:30:44;97461.97;;;2.76;100.00
24962;BME280;12992;50.884;13.668;2024-03-06T02:33:09;97473.97;;;2.80;100.00
24962;BME280;12992;50.884;13.668;2024-03-06T02:35:35;97475.16;;;2.64;100.00
24962;BME280;12992;50.884;13.668;2024-03-06T02:38:04;97475.50;;;2.41;100.00
24962;BME280;12992;50.884;13.668;2024-03-06T02:40:32;97478.88;;;2.57;100.00
24962;BME280;12992;50.884;13.668;2024-03-06T02:42:58;97484.59;;;2.40;100.00
24962;BME280;12992;50.884;13.668;2024-03-06T02:45:23;97486.81;;;2.30;100.00
24962;BME280;12992;50.884;13.668;2024-03-06T02:47:49;97491.63;;;2.41;100.00
24962;BME280;12992;50.884;13.668;2024-03-06T02:50:14;97490.34;;;2.37;100.00
24962;BME280;12992;50.884;13.668;2024-03-06T02:52:40;97487.34;;;2.19;100.00
24962;BME280;12992;50.884;13.668;2024-03-06T02:55:06;97487.75;;;2.16;100.00
24962;BME280;12992;50.884;13.668;2024-03-06T02:57:31;97482.16;;;2.11;100.00
24962;BME280;12992;50.884;13.668;2024-03-06T02:59:57;97479.63;;;2.03;100.00
24962;BME280;12992;50.884;13.668;2024-03-06T03:02:22;97488.06;;;1.99;100.00
24962;BME280;12992;50.884;13.668;2024-03-06T03:04:49;97489.72;;;2.01;100.00
24962;BME280;12992;50.884;13.668;2024-03-06T03:07:14;97481.81;;;1.86;100.00
24962;BME280;12992;50.884;13.668;2024-03-06T03:09:40;97487.03;;;1.66;100.00
24962;BME280;12992;50.884;13.668;2024-03-06T03:12:06;97486.66;;;1.69;100.00
24962;BME280;12992;50.884;13.668;2024-03-06T03:14:31;97495.03;;;1.87;100.00
24962;BME280;12992;50.884;13.668;2024-03-06T03:16:56;97498.63;;;2.01;100.00
24962;BME280;12992;50.884;13.668;2024-03-06T03:19:22;97508.84;;;2.19;100.00
24962;BME280;12992;50.884;13.668;2024-03-06T03:21:47;97508.50;;;2.28;100.00
24962;BME280;12992;50.884;13.668;2024-03-06T03:24:13;97506.53;;;2.50;100.00
24962;BME280;12992;50.884;13.668;2024-03-06T03:26:38;97515.06;;;2.61;100.00
24962;BME280;12992;50.884;13.668;2024-03-06T03:29:03;97515.47;;;2.64;100.00
24962;BME280;12992;50.884;13.668;2024-03-06T03:31:29;97507.03;;;2.74;100.00
24962;BME280;12992;50.884;13.668;2024-03-06T03:33:54;97519.94;;;2.92;100.00
24962;BME280;12992;50.884;13.668;2024-03-06T03:36:19;97513.50;;;2.86;100.00
24962;BME280;12992;50.884;13.668;2024-03-06T03:38:45;97510.81;;;2.86;100.00
24962;BME280;12992;50.884;13.668;2024-03-06T03:41:11;97512.41;;;2.74;100.00
24962;BME280;12992;50.884;13.668;2024-03-06T03:43:38;97517.59;;;2.75;100.00
24962;BME280;12992;50.884;13.668;2024-03-06T03:46:04;97527.38;;;2.83;100.00
24962;BME280;12992;50.884;13.668;2024-03-06T03:48:30;97526.16;;;2.92;100.00
24962;BME280;12992;50.884;13.668;2024-03-06T03:50:56;97529.09;;;3.10;100.00
24962;BME280;12992;50.884;13.668;2024-03-06T03:53:21;97519.13;;;3.04;100.00
24962;BME280;12992;50.884;13.668;2024-03-06T03:55:46;97524.09;;;3.01;100.00
24962;BME280;12992;50.884;13.668;2024-03-06T03:58:12;97524.34;;;3.12;100.00
24962;BME280;12992;50.884;13.668;2024-03-06T04:00:37;97527.22;;;3.18;100.00
24962;BME280;12992;50.884;13.668;2024-03-06T04:03:03;97526.59;;;3.16;100.00
24962;BME280;12992;50.884;13.668;2024-03-06T04:05:29;97527.22;;;3.18;100.00
24962;BME280;12992;50.884;13.668;2024-03-06T04:07:54;97531.59;;;3.19;100.00
24962;BME280;12992;50.884;13.668;2024-03-06T04:10:19;97521.88;;;3.24;100.00
24962;BME280;12992;50.884;13.668;2024-03-06T04:12:45;97523.75;;;3.30;100.00
24962;BME280;12992;50.884;13.668;2024-03-06T04:15:10;97534.91;;;3.21;100.00
24962;BME280;12992;50.884;13.668;2024-03-06T04:17:35;97536.56;;;3.22;100.00
24962;BME280;12992;50.884;13.668;2024-03-06T04:20:02;97534.88;;;3.07;100.00
24962;BME280;12992;50.884;13.668;2024-03-06T04:22:29;97547.31;;;3.15;100.00
24962;BME280;12992;50.884;13.668;2024-03-06T04:24:54;97544.03;;;3.20;100.00
24962;BME280;12992;50.884;13.668;2024-03-06T04:27:21;97551.91;;;3.34;100.00
24962;BME280;12992;50.884;13.668;2024-03-06T04:29:46;97548.19;;;3.42;100.00
24962;BME280;12992;50.884;13.668;2024-03-06T04:32:11;97555.47;;;3.68;100.00
24962;BME280;12992;50.884;13.668;2024-03-06T04:34:37;97549.25;;;3.54;100.00
24962;BME280;12992;50.884;13.668;2024-03-06T04:37:02;97554.66;;;3.54;100.00
24962;BME280;12992;50.884;13.668;2024-03-06T04:39:27;97557.56;;;3.66;100.00
24962;BME280;12992;50.884;13.668;2024-03-06T04:41:53;97553.19;;;3.58;100.00
24962;BME280;12992;50.884;13.668;2024-03-06T04:44:18;97560.44;;;3.58;100.00
24962;BME280;12992;50.884;13.668;2024-03-06T04:46:43;97561.66;;;3.62;100.00
24962;BME280;12992;50.884;13.668;2024-03-06T04:49:09;97561.91;;;3.67;100.00
24962;BME280;12992;50.884;13.668;2024-03-06T04:51:34;97561.06;;;3.66;100.00
24962;BME280;12992;50.884;13.668;2024-03-06T04:54:00;97565.22;;;3.76;100.00
24962;BME280;12992;50.884;13.668;2024-03-06T04:56:25;97560.25;;;3.66;100.00
24962;BME280;12992;50.884;13.668;2024-03-06T04:58:50;97566.47;;;3.73;100.00
24962;BME280;12992;50.884;13.668;2024-03-06T05:01:17;97568.31;;;3.66;100.00
24962;BME280;12992;50.884;13.668;2024-03-06T05:03:42;97574.31;;;3.61;100.00
24962;BME280;12992;50.884;13.668;2024-03-06T05:06:08;97574.75;;;3.65;100.00
24962;BME280;12992;50.884;13.668;2024-03-06T05:08:33;97587.59;;;3.83;100.00
24962;BME280;12992;50.884;13.668;2024-03-06T05:11:00;97586.78;;;3.82;100.00
24962;BME280;12992;50.884;13.668;2024-03-06T05:13:25;97588.41;;;3.70;100.00
24962;BME280;12992;50.884;13.668;2024-03-06T05:15:51;97584.69;;;3.64;100.00
24962;BME280;12992;50.884;13.668;2024-03-06T05:18:17;97589.22;;;3.57;100.00
24962;BME280;12992;50.884;13.668;2024-03-06T05:20:42;97596.28;;;3.58;100.00
24962;BME280;12992;50.884;13.668;2024-03-06T05:23:08;97602.50;;;3.65;100.00
24962;BME280;12992;50.884;13.668;2024-03-06T05:25:33;97607.50;;;3.82;100.00
24962;BME280;12992;50.884;13.668;2024-03-06T05:27:59;97612.69;;;3.83;100.00
24962;BME280;12992;50.884;13.668;2024-03-06T05:30:24;97607.47;;;3.88;100.00
24962;BME280;12992;50.884;13.668;2024-03-06T05:32:49;97609.16;;;3.83;100.00
24962;BME280;12992;50.884;13.668;2024-03-06T05:35:15;97614.97;;;3.93;100.00
24962;BME280;12992;50.884;13.668;2024-03-06T05:37:41;97609.78;;;3.91;100.00
24962;BME280;12992;50.884;13.668;2024-03-06T05:40:06;97613.09;;;3.87;100.00
24962;BME280;12992;50.884;13.668;2024-03-06T05:42:32;97610.19;;;3.95;100.00
24962;BME280;12992;50.884;13.668;2024-03-06T05:44:58;97622.41;;;3.97;100.00
24962;BME280;12992;50.884;13.668;2024-03-06T05:47:31;97621.38;;;4.05;100.00
24962;BME280;12992;50.884;13.668;2024-03-06T05:49:56;97619.53;;;4.12;100.00
24962;BME280;12992;50.884;13.668;2024-03-06T05:52:22;97624.91;;;4.06;100.00
24962;BME280;12992;50.884;13.668;2024-03-06T05:54:47;97624.69;;;4.14;100.00
24962;BME280;12992;50.884;13.668;2024-03-06T05:57:12;97631.16;;;4.19;100.00
24962;BME280;12992;50.884;13.668;2024-03-06T05:59:38;97636.75;;;4.18;100.00
24962;BME280;12992;50.884;13.668;2024-03-06T06:02:05;97637.97;;;4.22;100.00
24962;BME280;12992;50.884;13.668;2024-03-06T06:04:31;97641.28;;;4.31;100.00
24962;BME280;12992;50.884;13.668;2024-03-06T06:06:56;97647.72;;;4.36;100.00
24962;BME280;12992;50.884;13.668;2024-03-06T06:09:21;97640.69;;;4.09;100.00
24962;BME280;12992;50.884;13.668;2024-03-06T06:11:47;97645.22;;;3.95;100.00
24962;BME280;12992;50.884;13.668;2024-03-06T06:14:13;97647.50;;;3.91;100.00
24962;BME280;12992;50.884;13.668;2024-03-06T06:16:39;97655.19;;;4.14;100.00
24962;BME280;12992;50.884;13.668;2024-03-06T06:19:06;97662.25;;;4.35;100.00
24962;BME280;12992;50.884;13.668;2024-03-06T06:21:31;97659.34;;;4.37;100.00
24962;BME280;12992;50.884;13.668;2024-03-06T06:23:57;97661.84;;;4.45;100.00
24962;BME280;12992;50.884;13.668;2024-03-06T06:26:22;97655.59;;;4.31;100.00
24962;BME280;12992;50.884;13.668;2024-03-06T06:28:47;97659.34;;;4.43;100.00
24962;BME280;12992;50.884;13.668;2024-03-06T06:31:13;97666.41;;;4.51;100.00
24962;BME280;12992;50.884;13.668;2024-03-06T06:33:38;97659.75;;;4.47;100.00
24962;BME280;12992;50.884;13.668;2024-03-06T06:36:03;97676.75;;;4.47;100.00
24962;BME280;12992;50.884;13.668;2024-03-06T06:38:29;97673.44;;;4.45;100.00
24962;BME280;12992;50.884;13.668;2024-03-06T06:40:55;97675.94;;;4.47;100.00
24962;BME280;12992;50.884;13.668;2024-03-06T06:43:20;97674.88;;;4.48;100.00
24962;BME280;12992;50.884;13.668;2024-03-06T06:45:46;97681.09;;;4.48;100.00
24962;BME280;12992;50.884;13.668;2024-03-06T06:48:11;97684.63;;;4.49;100.00
24962;BME280;12992;50.884;13.668;2024-03-06T06:50:37;97687.16;;;4.44;100.00
24962;BME280;12992;50.884;13.668;2024-03-06T06:53:03;97694.19;;;4.45;100.00
24962;BME280;12992;50.884;13.668;2024-03-06T06:55:28;97683.78;;;4.02;100.00
24962;BME280;12992;50.884;13.668;2024-03-06T06:57:53;97690.03;;;4.09;100.00
24962;BME280;12992;50.884;13.668;2024-03-06T07:00:19;97697.28;;;4.48;100.00
24962;BME280;12992;50.884;13.668;2024-03-06T07:02:47;97689.22;;;4.42;100.00
24962;BME280;12992;50.884;13.668;2024-03-06T07:05:12;97694.59;;;4.62;100.00
24962;BME280;12992;50.884;13.668;2024-03-06T07:07:38;97703.28;;;4.83;100.00
24962;BME280;12992;50.884;13.668;2024-03-06T07:10:04;97691.47;;;4.65;100.00
24962;BME280;12992;50.884;13.668;2024-03-06T07:12:30;97698.06;;;5.02;100.00
24962;BME280;12992;50.884;13.668;2024-03-06T07:14:56;97689.13;;;5.01;100.00
24962;BME280;12992;50.884;13.668;2024-03-06T07:17:21;97698.03;;;5.15;100.00
24962;BME280;12992;50.884;13.668;2024-03-06T07:19:46;97706.50;;;5.32;100.00
24962;BME280;12992;50.884;13.668;2024-03-06T07:22:12;97702.31;;;5.36;100.00
24962;BME280;12992;50.884;13.668;2024-03-06T07:24:37;97703.53;;;5.47;100.00
24962;BME280;12992;50.884;13.668;2024-03-06T07:27:03;97702.91;;;5.51;100.00
24962;BME280;12992;50.884;13.668;2024-03-06T07:29:28;97696.44;;;5.59;100.00
24962;BME280;12992;50.884;13.668;2024-03-06T07:31:54;97695.75;;;5.70;100.00
24962;BME280;12992;50.884;13.668;2024-03-06T07:34:19;97702.84;;;6.34;100.00
24962;BME280;12992;50.884;13.668;2024-03-06T07:36:47;97697.13;;;7.35;100.00
24962;BME280;12992;50.884;13.668;2024-03-06T07:39:14;97696.28;;;7.72;98.14
24962;BME280;12992;50.884;13.668;2024-03-06T07:41:40;97694.88;;;8.11;94.53
24962;BME280;12992;50.884;13.668;2024-03-06T07:44:05;97687.22;;;8.08;92.41
24962;BME280;12992;50.884;13.668;2024-03-06T07:46:30;97687.41;;;9.01;89.38
24962;BME280;12992;50.884;13.668;2024-03-06T07:48:56;97683.19;;;10.26;83.48
24962;BME280;12992;50.884;13.668;2024-03-06T07:51:21;97679.81;;;11.63;79.23
24962;BME280;12992;50.884;13.668;2024-03-06T07:53:46;97670.72;;;12.24;74.48
24962;BME280;12992;50.884;13.668;2024-03-06T07:56:12;97657.59;;;11.94;71.85
24962;BME280;12992;50.884;13.668;2024-03-06T07:58:38;97647.97;;;11.25;71.40
24962;BME280;12992;50.884;13.668;2024-03-06T08:01:03;97652.34;;;10.71;72.54
24962;BME280;12992;50.884;13.668;2024-03-06T08:03:28;97670.00;;;10.68;74.21
24962;BME280;12992;50.884;13.668;2024-03-06T08:05:54;97676.03;;;11.64;72.69
24962;BME280;12992;50.884;13.668;2024-03-06T08:08:20;97652.50;;;11.80;69.54
24962;BME280;12992;50.884;13.668;2024-03-06T08:10:46;97669.31;;;12.48;68.78
24962;BME280;12992;50.884;13.668;2024-03-06T08:13:11;97652.47;;;12.98;65.14
24962;BME280;12992;50.884;13.668;2024-03-06T08:15:37;97648.78;;;12.45;65.48
24962;BME280;12992;50.884;13.668;2024-03-06T08:18:02;97658.72;;;12.25;67.29
24962;BME280;12992;50.884;13.668;2024-03-06T08:20:29;97659.88;;;10.47;69.89
24962;BME280;12992;50.884;13.668;2024-03-06T08:22:55;97670.31;;;11.05;71.30
24962;BME280;12992;50.884;13.668;2024-03-06T08:25:21;97668.75;;;11.10;71.05
24962;BME280;12992;50.884;13.668;2024-03-06T08:27:46;97676.19;;;11.36;71.92
24962;BME280;12992;50.884;13.668;2024-03-06T08:30:12;97679.09;;;11.90;70.02
24962;BME280;12992;50.884;13.668;2024-03-06T08:32:38;97675.97;;;12.62;67.21
24962;BME280;12992;50.884;13.668;2024-03-06T08:35:04;97658.53;;;13.43;64.80
24962;BME280;12992;50.884;13.668;2024-03-06T08:37:33;97654.38;;;13.87;62.19
24962;BME280;12992;50.884;13.668;2024-03-06T08:40:00;97660.84;;;13.61;62.09
24962;BME280;12992;50.884;13.668;2024-03-06T08:42:29;97641.22;;;13.89;60.25
24962;BME280;12992;50.884;13.668;2024-03-06T08:44:54;97652.75;;;13.34;61.27
24962;BME280;12992;50.884;13.668;2024-03-06T08:47:20;97647.81;;;12.57;61.03
24962;BME280;12992;50.884;13.668;2024-03-06T08:49:45;97671.91;;;12.06;62.76
24962;BME280;12992;50.884;13.668;2024-03-06T08:52:11;97675.28;;;11.91;64.41
24962;BME280;12992;50.884;13.668;2024-03-06T08:54:36;97681.31;;;12.74;64.32
24962;BME280;12992;50.884;13.668;2024-03-06T08:57:02;97671.47;;;11.92;64.98
24962;BME280;12992;50.884;13.668;2024-03-06T08:59:28;97684.47;;;12.34;65.83
24962;BME280;12992;50.884;13.668;2024-03-06T09:01:54;97684.38;;;12.24;64.89
24962;BME280;12992;50.884;13.668;2024-03-06T09:04:21;97670.84;;;12.66;61.80
24962;BME280;12992;50.884;13.668;2024-03-06T09:06:46;97676.34;;;13.50;62.04
24962;BME280;12992;50.884;13.668;2024-03-06T09:09:11;97678.47;;;13.96;60.57
24962;BME280;12992;50.884;13.668;2024-03-06T09:11:40;97682.59;;;13.41;61.79
24962;BME280;12992;50.884;13.668;2024-03-06T09:14:07;97679.53;;;12.95;60.62
24962;BME280;12992;50.884;13.668;2024-03-06T09:16:32;97683.97;;;13.38;60.47
24962;BME280;12992;50.884;13.668;2024-03-06T09:18:57;97689.28;;;13.65;60.50
24962;BME280;12992;50.884;13.668;2024-03-06T09:21:23;97706.91;;;14.78;61.04
24962;BME280;12992;50.884;13.668;2024-03-06T09:23:48;97700.03;;;14.80;60.47
24962;BME280;12992;50.884;13.668;2024-03-06T09:26:16;97687.91;;;15.47;58.95
24962;BME280;12992;50.884;13.668;2024-03-06T09:28:42;97673.56;;;15.71;57.42
24962;BME280;12992;50.884;13.668;2024-03-06T09:31:07;97693.66;;;15.61;58.35
24962;BME280;12992;50.884;13.668;2024-03-06T09:33:32;97692.81;;;15.45;57.67
24962;BME280;12992;50.884;13.668;2024-03-06T09:35:58;97688.19;;;13.61;58.58
24962;BME280;12992;50.884;13.668;2024-03-06T09:38:24;97712.09;;;12.10;61.82
24962;BME280;12992;50.884;13.668;2024-03-06T09:40:49;97736.63;;;10.61;66.80
24962;BME280;12992;50.884;13.668;2024-03-06T09:43:16;97745.69;;;9.69;68.90
24962;BME280;12992;50.884;13.668;2024-03-06T09:45:45;97747.72;;;8.92;72.25
24962;BME280;12992;50.884;13.668;2024-03-06T09:48:11;97768.28;;;8.76;73.83
24962;BME280;12992;50.884;13.668;2024-03-06T09:50:38;97753.97;;;8.69;72.69
24962;BME280;12992;50.884;13.668;2024-03-06T09:53:09;97761.69;;;9.19;73.75
24962;BME280;12992;50.884;13.668;2024-03-06T09:55:36;97746.59;;;11.39;69.81
24962;BME280;12992;50.884;13.668;2024-03-06T09:58:02;97736.56;;;11.06;67.81
24962;BME280;12992;50.884;13.668;2024-03-06T10:00:30;97739.38;;;11.67;66.00
24962;BME280;12992;50.884;13.668;2024-03-06T10:02:58;97732.81;;;12.60;62.67
24962;BME280;12992;50.884;13.668;2024-03-06T10:05:26;97723.81;;;13.71;59.27
24962;BME280;12992;50.884;13.668;2024-03-06T10:07:52;97701.69;;;15.07;55.46
24962;BME280;12992;50.884;13.668;2024-03-06T10:10:19;97703.63;;;14.76;54.98
24962;BME280;12992;50.884;13.668;2024-03-06T10:12:45;97705.19;;;15.48;52.63
24962;BME280;12992;50.884;13.668;2024-03-06T10:15:13;97689.03;;;15.31;49.99
24962;BME280;12992;50.884;13.668;2024-03-06T10:17:38;97703.25;;;15.74;50.37
24962;BME280;12992;50.884;13.668;2024-03-06T10:20:23;97706.00;;;17.12;49.23
24962;BME280;12992;50.884;13.668;2024-03-06T10:22:50;97699.34;;;17.47;48.38
24962;BME280;12992;50.884;13.668;2024-03-06T10:25:18;97706.50;;;17.19;49.02
24962;BME280;12992;50.884;13.668;2024-03-06T10:27:43;97723.63;;;18.17;50.39
24962;BME280;12992;50.884;13.668;2024-03-06T10:30:09;97714.97;;;16.49;51.05
24962;BME280;12992;50.884;13.668;2024-03-06T10:32:38;97724.59;;;14.34;53.44
24962;BME280;12992;50.884;13.668;2024-03-06T10:35:04;97737.66;;;14.07;56.67
24962;BME280;12992;50.884;13.668;2024-03-06T10:37:32;97745.00;;;12.80;57.66
24962;BME280;12992;50.884;13.668;2024-03-06T10:40:02;97743.72;;;14.14;58.32
24962;BME280;12992;50.884;13.668;2024-03-06T10:42:31;97743.88;;;12.75;57.85
24962;BME280;12992;50.884;13.668;2024-03-06T10:44:59;97755.81;;;12.96;58.69
24962;BME280;12992;50.884;13.668;2024-03-06T10:47:25;97739.78;;;14.67;56.35
24962;BME280;12992;50.884;13.668;2024-03-06T10:49:52;97727.81;;;14.06;54.64
24962;BME280;12992;50.884;13.668;2024-03-06T10:52:19;97726.88;;;15.44;54.01
24962;BME280;12992;50.884;13.668;2024-03-06T10:54:44;97725.25;;;14.82;54.65
24962;BME280;12992;50.884;13.668;2024-03-06T11:00:58;97726.63;;;15.10;53.88
24962;BME280;12992;50.884;13.668;2024-03-06T11:03:23;97725.00;;;14.89;53.80
24962;BME280;12992;50.884;13.668;2024-03-06T11:05:50;97718.69;;;15.29;52.15
24962;BME280;12992;50.884;13.668;2024-03-06T11:08:17;97713.41;;;15.63;51.27
24962;BME280;12992;50.884;13.668;2024-03-06T11:10:42;97717.03;;;15.38;50.88
24962;BME280;12992;50.884;13.668;2024-03-06T11:15:34;97710.13;;;15.61;49.18
24962;BME280;12992;50.884;13.668;2024-03-06T11:24:13;97707.97;;;14.82;50.05
24962;BME280;12992;50.884;13.668;2024-03-06T11:26:42;97723.34;;;14.67;52.21
24962;BME280;12992;50.884;13.668;2024-03-06T11:29:08;97730.22;;;14.95;53.88
24962;BME280;12992;50.884;13.668;2024-03-06T11:31:34;97716.75;;;15.24;52.35
24962;BME280;12992;50.884;13.668;2024-03-06T11:34:04;97714.50;;;15.52;51.38
24962;BME280;12992;50.884;13.668;2024-03-06T11:36:30;97717.03;;;14.72;51.73
24962;BME280;12992;50.884;13.668;2024-03-06T11:39:06;97715.38;;;15.37;52.80
24962;BME280;12992;50.884;13.668;2024-03-06T11:44:01;97717.59;;;15.20;52.26
24962;BME280;12992;50.884;13.668;2024-03-06T11:46:42;97741.44;;;13.43;56.14
24962;BME280;12992;50.884;13.668;2024-03-06T11:49:15;97736.84;;;14.11;54.65
24962;BME280;12992;50.884;13.668;2024-03-06T11:51:44;97745.28;;;12.78;57.60
24962;BME280;12992;50.884;13.668;2024-03-06T11:54:10;97751.84;;;11.07;59.94
24962;BME280;12992;50.884;13.668;2024-03-06T11:56:36;97763.00;;;10.43;62.72
24962;BME280;12992;50.884;13.668;2024-03-06T11:59:03;97766.91;;;9.96;64.28
24962;BME280;12992;50.884;13.668;2024-03-06T12:01:30;97767.94;;;10.92;65.07
24962;BME280;12992;50.884;13.668;2024-03-06T12:03:55;97746.22;;;11.91;62.46
24962;BME280;12992;50.884;13.668;2024-03-06T12:06:20;97761.75;;;11.13;63.20
24962;BME280;12992;50.884;13.668;2024-03-06T12:08:47;97768.38;;;9.86;64.71
24962;BME280;12992;50.884;13.668;2024-03-06T12:11:13;97784.00;;;8.86;66.87
24962;BME280;12992;50.884;13.668;2024-03-06T12:13:38;97787.78;;;8.24;70.51
24962;BME280;12992;50.884;13.668;2024-03-06T12:16:05;97801.47;;;7.81;74.15
24962;BME280;12992;50.884;13.668;2024-03-06T12:18:31;97801.84;;;7.66;75.52
24962;BME280;12992;50.884;13.668;2024-03-06T12:20:56;97794.44;;;9.35;75.39
24962;BME280;12992;50.884;13.668;2024-03-06T12:23:24;97778.59;;;9.56;72.03
24962;BME280;12992;50.884;13.668;2024-03-06T12:26:02;97787.50;;;8.74;72.23
24962;BME280;12992;50.884;13.668;2024-03-06T12:28:27;97796.53;;;8.27;73.20
24962;BME280;12992;50.884;13.668;2024-03-06T12:30:52;97805.31;;;7.92;75.68
24962;BME280;12992;50.884;13.668;2024-03-06T12:33:18;97801.19;;;7.71;75.81
24962;BME280;12992;50.884;13.668;2024-03-06T12:35:44;97791.16;;;7.72;76.64
24962;BME280;12992;50.884;13.668;2024-03-06T12:38:14;97798.44;;;8.08;76.48
24962;BME280;12992;50.884;13.668;2024-03-06T12:40:41;97791.13;;;9.33;74.53
24962;BME280;12992;50.884;13.668;2024-03-06T12:43:07;97782.47;;;9.72;71.41
24962;BME280;12992;50.884;13.668;2024-03-06T12:45:33;97770.38;;;11.60;67.84
24962;BME280;12992;50.884;13.668;2024-03-06T12:47:59;97758.41;;;13.13;63.56
24962;BME280;12992;50.884;13.668;2024-03-06T12:50:24;97733.47;;;13.04;59.13
24962;BME280;12992;50.884;13.668;2024-03-06T12:52:49;97757.50;;;11.39;61.64
24962;BME280;12992;50.884;13.668;2024-03-06T12:55:15;97767.75;;;10.65;63.12
24962;BME280;12992;50.884;13.668;2024-03-06T12:57:40;97760.03;;;9.06;65.56
24962;BME280;12992;50.884;13.668;2024-03-06T13:00:07;97787.50;;;8.74;68.56